Time;durP1;ratioP1;P1;durP2;ratioP2;P2;SDS_P1;SDS_P2;PMS_P1;PMS_P2;Temp;Humidity;BMP_temperature;BMP_pressure;BME280_temperature;BME280_humidity;BME280_pressure;Samples;Min_cycle;Max_cycle;Signal;HPM_P1;HPM_P2
2024/04/14 00:01:53;;;;;;;3.60;3.30;;;;;;;;;;5431866;26;20304;-84
2024/04/14 00:04:25;;;;;;;4.13;3.30;;;;;;;;;;5432060;26;20295;-84
2024/04/14 00:06:57;;;;;;;5.20;2.90;;;;;;;;;;5401746;26;20325;-82
2024/04/14 00:09:30;;;;;;;4.37;2.80;;;;;;;;;;5432210;26;20311;-83
2024/04/14 00:11:56;;;;;;;4.77;3.40;;;;;;;;;;5429388;26;20672;-83
2024/04/14 00:14:27;;;;;;;5.80;2.90;;;;;;;;;;5429936;26;20264;-83
2024/04/14 00:16:57;;;;;;;4.07;3.00;;;;;;;;;;5430028;26;20225;-83
2024/04/14 00:19:26;;;;;;;5.80;2.93;;;;;;;;;;5398329;26;20263;-81
2024/04/14 00:21:53;;;;;;;3.67;2.90;;;;;;;;;;5399013;26;20264;-83
2024/04/14 00:24:32;;;;;;;3.80;2.87;;;;;;;;;;5397749;26;20237;-82
2024/04/14 00:26:59;;;;;;;6.17;3.00;;;;;;;;;;5420640;21;20265;-82
2024/04/14 00:29:27;;;;;;;4.67;2.77;;;11.10;99.90;;;;;;5420117;26;20229;-84
2024/04/14 00:31:53;;;;;;;4.87;3.00;;;;;;;;;;5418297;26;20317;-82
2024/04/14 00:34:24;;;;;;;3.67;2.70;;;11.00;99.90;;;;;;5420088;26;20307;-83
2024/04/14 00:36:50;;;;;;;4.87;2.80;;;11.00;99.90;;;;;;5419855;26;20218;-81
2024/04/14 00:39:19;;;;;;;4.30;2.83;;;;;;;;;;5418503;26;20213;-82
2024/04/14 00:41:47;;;;;;;4.40;3.00;;;11.10;99.90;;;;;;5419282;26;20210;-83
2024/04/14 00:44:17;;;;;;;3.50;2.90;;;;;;;;;;5420776;26;20221;-83
2024/04/14 00:46:42;;;;;;;3.77;2.77;;;11.20;99.90;;;;;;5420828;26;20530;-84
2024/04/14 00:49:12;;;;;;;3.97;2.67;;;11.10;99.90;;;;;;5419018;26;20261;-82
2024/04/14 00:51:39;;;;;;;5.80;2.97;;;;;;;;;;5417631;26;20815;-82
2024/04/14 00:54:08;;;;;;;3.50;2.80;;;11.20;99.90;;;;;;5419593;26;20252;-85
2024/04/14 00:56:34;;;;;;;4.37;2.67;;;11.20;99.90;;;;;;5419881;26;20225;-83
2024/04/14 00:59:06;;;;;;;3.53;3.10;;;11.20;99.90;;;;;;5417734;26;20229;-83
2024/04/14 01:01:32;;;;;;;3.77;2.83;;;11.10;99.90;;;;;;5417424;26;20298;-83
2024/04/14 01:04:00;;;;;;;4.00;3.07;;;;;;;;;;5416573;26;20242;-84
2024/04/14 01:06:27;;;;;;;3.00;2.70;;;;;;;;;;5419535;26;20225;-83
2024/04/14 01:08:55;;;;;;;4.37;2.70;;;;;;;;;;5418402;26;20287;-83
2024/04/14 01:11:22;;;;;;;3.93;2.97;;;;;;;;;;5418975;26;20263;-81
2024/04/14 01:13:51;;;;;;;4.60;2.87;;;;;;;;;;5418969;26;20304;-81
2024/04/14 01:16:20;;;;;;;4.50;2.80;;;10.80;99.90;;;;;;5417125;26;20557;-81
2024/04/14 01:18:49;;;;;;;3.40;2.90;;;10.80;99.90;;;;;;5419080;26;20269;-84
2024/04/14 01:21:17;;;;;;;3.70;3.07;;;10.80;99.90;;;;;;5418879;26;20218;-80
2024/04/14 01:23:46;;;;;;;3.00;2.80;;;;;;;;;;5418722;26;20325;-85
2024/04/14 01:26:15;;;;;;;3.70;2.80;;;10.60;99.90;;;;;;5417904;26;20289;-82
2024/04/14 01:28:43;;;;;;;4.07;2.83;;;10.70;99.90;;;;;;5416227;26;20328;-83
2024/04/14 01:31:09;;;;;;;3.23;2.93;;;10.80;99.90;;;;;;5418199;26;20360;-83
2024/04/14 01:33:38;;;;;;;3.67;2.70;;;;;;;;;;5418951;26;20310;-83
2024/04/14 01:36:04;;;;;;;5.30;3.07;;;10.70;99.90;;;;;;5420578;26;20269;-83
2024/04/14 01:38:33;;;;;;;3.47;3.17;;;;;;;;;;5416832;26;20210;-81
2024/04/14 01:40:59;;;;;;;5.50;2.90;;;;;;;;;;5417315;26;20221;-82
2024/04/14 01:43:30;;;;;;;4.90;3.07;;;10.60;99.90;;;;;;5416195;26;20229;-83
2024/04/14 01:45:57;;;;;;;5.10;3.23;;;;;;;;;;5418392;26;20222;-82
2024/04/14 01:48:27;;;;;;;5.40;3.30;;;10.50;99.90;;;;;;5417618;26;20749;-82
2024/04/14 01:50:53;;;;;;;5.50;3.03;;;;;;;;;;5418361;26;20240;-83
2024/04/14 01:53:22;;;;;;;3.80;3.00;;;10.60;99.90;;;;;;5416456;26;20709;-80
2024/04/14 01:55:47;;;;;;;4.10;2.87;;;10.50;99.90;;;;;;5418950;26;20221;-82
2024/04/14 01:58:18;;;;;;;3.27;2.77;;;;;;;;;;5417965;26;20295;-82
2024/04/14 02:00:47;;;;;;;6.53;3.43;;;10.30;99.90;;;;;;5418500;26;20194;-81
2024/04/14 02:03:15;;;;;;;4.67;3.07;;;10.40;99.90;;;;;;5420580;26;20254;-83
2024/04/14 02:05:42;;;;;;;3.73;3.03;;;;;;;;;;5423842;26;20248;-82
2024/04/14 02:08:11;;;;;;;4.13;3.00;;;10.40;99.90;;;;;;5421497;26;20311;-82
2024/04/14 02:10:39;;;;;;;4.90;3.27;;;10.50;99.90;;;;;;5413929;26;20249;-84
2024/04/14 02:13:08;;;;;;;3.30;3.00;;;;;;;;;;5413561;26;20267;-84
2024/04/14 02:15:34;;;;;;;6.70;3.23;;;;;;;;;;5413897;26;20225;-83
2024/04/14 02:18:05;;;;;;;3.67;3.07;;;;;;;;;;5413444;26;20222;-81
2024/04/14 02:20:32;;;;;;;3.67;3.20;;;;;;;;;;5413139;26;20234;-85
2024/04/14 02:23:00;;;;;;;4.00;3.27;;;;;;;;;;5414304;26;20281;-84
2024/04/14 02:25:26;;;;;;;3.33;2.80;;;10.40;99.90;;;;;;5413532;26;20225;-84
2024/04/14 02:27:55;;;;;;;4.80;3.10;;;;;;;;;;5413278;26;20295;-83
2024/04/14 02:30:21;;;;;;;4.10;2.87;;;10.40;99.90;;;;;;5422519;26;20261;-85
2024/04/14 02:32:50;;;;;;;3.20;2.90;;;10.30;99.90;;;;;;5427756;26;20217;-84
2024/04/14 02:35:18;;;;;;;6.77;3.03;;;10.30;99.90;;;;;;5427262;26;20302;-84
2024/04/14 02:37:48;;;;;;;4.23;2.90;;;10.20;99.90;;;;;;5421764;26;20261;-82
2024/04/14 02:40:14;;;;;;;3.30;3.00;;;;;;;;;;5423243;26;20261;-85
2024/04/14 02:42:43;;;;;;;4.37;2.73;;;10.30;99.90;;;;;;5416819;26;20226;-82
2024/04/14 02:45:09;;;;;;;3.57;3.10;;;10.30;99.90;;;;;;5416180;26;20264;-82
2024/04/14 02:47:38;;;;;;;3.90;3.00;;;;;;;;;;5415772;26;20221;-83
2024/04/14 02:50:05;;;;;;;5.83;3.00;;;10.20;99.90;;;;;;5419768;26;20252;-83
2024/04/14 02:52:36;;;;;;;3.53;2.83;;;10.30;99.90;;;;;;5416381;26;20269;-83
2024/04/14 02:55:03;;;;;;;3.83;2.90;;;10.30;99.90;;;;;;5414385;26;20221;-84
2024/04/14 02:57:31;;;;;;;2.90;2.60;;;10.20;99.90;;;;;;5420111;26;20246;-83
2024/04/14 02:59:57;;;;;;;3.70;3.10;;;10.20;99.90;;;;;;5419744;26;20230;-83
2024/04/14 03:02:27;;;;;;;3.27;2.87;;;;;;;;;;5413701;26;20226;-83
2024/04/14 03:04:53;;;;;;;3.60;2.80;;;;;;;;;;5412454;26;20627;-82
2024/04/14 03:07:22;;;;;;;4.30;3.27;;;10.10;99.90;;;;;;5414119;26;20229;-84
2024/04/14 03:09:52;;;;;;;3.53;2.60;;;10.10;99.90;;;;;;5414853;26;20721;-84
2024/04/14 03:12:21;;;;;;;2.83;2.53;;;;;;;;;;5413010;26;20225;-84
2024/04/14 03:14:47;;;;;;;4.27;2.70;;;10.00;99.90;;;;;;5414489;26;20267;-82
2024/04/14 03:17:17;;;;;;;2.60;2.40;;;;;;;;;;5414426;26;20222;-84
2024/04/14 03:19:44;;;;;;;2.67;2.40;;;;;;;;;;5414288;26;20218;-82
2024/04/14 03:22:12;;;;;;;3.07;2.47;;;10.00;99.90;;;;;;5412324;26;20646;-84
2024/04/14 03:24:38;;;;;;;2.40;2.20;;;10.10;99.90;;;;;;5411984;26;20221;-80
2024/04/14 03:27:09;;;;;;;3.30;2.40;;;10.00;99.90;;;;;;5412731;26;20241;-85
2024/04/14 03:29:35;;;;;;;3.80;2.70;;;;;;;;;;5413863;26;20221;-86
2024/04/14 03:32:04;;;;;;;2.53;2.33;;;10.10;99.90;;;;;;5412507;26;20221;-84
2024/04/14 03:34:30;;;;;;;2.93;2.40;;;;;;;;;;5412911;26;20267;-85
2024/04/14 03:36:59;;;;;;;3.07;2.50;;;;;;;;;;5410625;26;20230;-83
2024/04/14 03:39:28;;;;;;;2.90;2.70;;;;;;;;;;5411133;26;20242;-82
2024/04/14 03:41:57;;;;;;;3.07;2.47;;;;;;;;;;5411080;26;20333;-83
2024/04/14 03:44:32;;;;;;;3.33;2.10;;;10.10;99.90;;;;;;5413387;26;20606;-83
2024/04/14 03:47:01;;;;;;;3.03;2.43;;;;;;;;;;5414313;26;20453;-83
2024/04/14 03:49:30;;;;;;;2.93;2.30;;;;;;;;;;5411366;26;20230;-81
2024/04/14 03:51:56;;;;;;;3.77;2.37;;;;;;;;;;5413271;26;20259;-83
2024/04/14 03:54:25;;;;;;;3.00;2.30;;;10.10;99.90;;;;;;5414421;26;20214;-83
2024/04/14 03:56:51;;;;;;;2.40;2.20;;;10.20;99.90;;;;;;5412365;26;20242;-83
2024/04/14 03:59:20;;;;;;;3.77;2.50;;;10.20;99.90;;;;;;5411791;26;20264;-83
2024/04/14 04:01:48;;;;;;;2.60;2.40;;;10.10;99.90;;;;;;5411051;26;20584;-81
2024/04/14 04:04:17;;;;;;;4.03;2.50;;;;;;;;;;5413128;26;20256;-84
2024/04/14 04:06:44;;;;;;;2.67;2.33;;;;;;;;;;5413275;26;20221;-78
2024/04/14 04:09:12;;;;;;;4.53;2.90;;;;;;;;;;5412636;26;20599;-82
2024/04/14 04:11:38;;;;;;;7.23;2.50;;;;;;;;;;5411842;26;20240;-83
2024/04/14 04:14:07;;;;;;;2.50;2.17;;;;;;;;;;5413341;26;20295;-84
2024/04/14 04:16:34;;;;;;;2.47;2.13;;;;;;;;;;5422210;26;20248;-78
2024/04/14 04:19:05;;;;;;;3.57;2.40;;;;;;;;;;5426218;26;20322;-80
2024/04/14 04:21:31;;;;;;;3.70;2.30;;;;;;;;;;5414429;26;20314;-83
2024/04/14 04:24:00;;;;;;;2.63;2.10;;;;;;;;;;5411015;26;20230;-83
2024/04/14 04:26:27;;;;;;;4.20;2.20;;;10.00;99.90;;;;;;5411807;26;20752;-83
2024/04/14 04:28:56;;;;;;;3.73;2.50;;;;;;;;;;5413615;26;20293;-83
2024/04/14 04:31:22;;;;;;;2.50;2.20;;;;;;;;;;5412898;26;20601;-84
2024/04/14 04:33:51;;;;;;;2.60;2.40;;;;;;;;;;5411820;26;20260;-82
2024/04/14 04:36:19;;;;;;;2.77;2.43;;;9.90;99.90;;;;;;5410060;26;20324;-84
2024/04/14 04:38:48;;;;;;;2.47;2.27;;;9.90;99.90;;;;;;5412345;26;20260;-84
2024/04/14 04:41:13;;;;;;;2.63;2.30;;;9.90;99.90;;;;;;5415937;26;20255;-83
2024/04/14 04:43:42;;;;;;;2.60;2.40;;;9.90;99.90;;;;;;5416222;26;20353;-81
2024/04/14 04:46:09;;;;;;;3.43;2.70;;;;;;;;;;5415950;26;20226;-83
2024/04/14 04:48:38;;;;;;;3.13;2.30;;;9.70;99.90;;;;;;5413435;26;20234;-79
2024/04/14 04:51:04;;;;;;;3.13;2.30;;;;;;;;;;5417613;26;20233;-83
2024/04/14 04:53:36;;;;;;;2.47;2.23;;;9.90;99.90;;;;;;5413068;26;20241;-83
2024/04/14 04:56:02;;;;;;;2.43;2.23;;;;;;;;;;5416314;26;20263;-82
2024/04/14 04:58:31;;;;;;;3.43;2.30;;;;;;;;;;5415844;26;20229;-83
2024/04/14 05:00:57;;;;;;;2.63;2.23;;;9.90;99.90;;;;;;5414290;26;20256;-83
2024/04/14 05:03:26;;;;;;;2.20;2.00;;;;;;;;;;5416715;26;20230;-84
2024/04/14 05:05:56;;;;;;;3.23;2.20;;;10.10;99.90;;;;;;5415062;26;20717;-83
2024/04/14 05:08:26;;;;;;;4.40;2.17;;;;;;;;;;5416828;26;20624;-83
2024/04/14 05:10:55;;;;;;;3.60;1.93;;;;;;;;;;5416342;26;20218;-83
2024/04/14 05:13:24;;;;;;;2.43;2.20;;;;;;;;;;5418717;26;20264;-82
2024/04/14 05:15:51;;;;;;;2.93;2.40;;;;;;;;;;5415010;26;20538;-81
2024/04/14 05:18:19;;;;;;;2.73;2.30;;;10.50;99.90;;;;;;5414961;26;20268;-81
2024/04/14 05:20:45;;;;;;;2.47;1.97;;;10.60;99.90;;;;;;5420243;26;20213;-83
2024/04/14 05:23:14;;;;;;;3.23;2.40;;;;;;;;;;5429462;26;20262;-81
2024/04/14 05:25:40;;;;;;;2.20;2.00;;;10.90;99.90;;;;;;5426189;26;20248;-83
2024/04/14 05:28:11;;;;;;;3.30;2.17;;;11.00;99.90;;;;;;5420616;26;20221;-85
2024/04/14 05:30:39;;;;;;;2.47;2.07;;;11.10;99.90;;;;;;5425290;26;20581;-85
2024/04/14 05:33:08;;;;;;;2.40;2.20;;;;;;;;;;5411823;26;20233;-80
2024/04/14 05:35:34;;;;;;;2.70;2.30;;;11.60;99.90;;;;;;5412393;26;20222;-83
2024/04/14 05:38:03;;;;;;;3.23;2.30;;;11.60;99.90;;;;;;5411943;26;20221;-84
2024/04/14 05:40:29;;;;;;;3.37;2.20;;;12.00;99.90;;;;;;5413547;26;20211;-83
2024/04/14 05:42:57;;;;;;;2.83;2.33;;;;;;;;;;5412398;26;20255;-81
2024/04/14 05:45:28;;;;;;;2.30;2.10;;;;;;;;;;5413473;26;20324;-83
2024/04/14 05:47:57;;;;;;;2.50;2.00;;;;;;;;;;5412035;26;20182;-83
2024/04/14 05:50:23;;;;;;;2.70;2.30;;;;;;;;;;5412568;26;20217;-85
2024/04/14 05:52:52;;;;;;;3.30;2.10;;;13.00;99.90;;;;;;5413965;26;20326;-84
2024/04/14 05:55:18;;;;;;;2.17;1.97;;;13.10;99.90;;;;;;5412089;26;20222;-82
2024/04/14 05:57:47;;;;;;;2.47;2.00;;;;;;;;;;5411074;26;20241;-82
2024/04/14 06:00:13;;;;;;;3.23;2.00;;;13.50;99.90;;;;;;5413051;26;20226;-84
2024/04/14 06:02:47;;;;;;;2.55;1.92;;;13.80;99.90;;;;;;5411104;26;20305;-83
2024/04/14 06:05:13;;;;;;;2.60;2.20;;;13.70;99.90;;;;;;5413679;26;20221;-82
2024/04/14 06:07:42;;;;;;;2.33;1.90;;;14.00;99.90;;;;;;5414663;26;20310;-82
2024/04/14 06:10:08;;;;;;;3.13;1.88;;;14.00;99.90;;;;;;5421193;26;20751;-83
2024/04/14 06:12:36;;;;;;;2.77;2.17;;;14.20;99.90;;;;;;5415108;26;20230;-82
2024/04/14 06:15:03;;;;;;;1.90;1.70;;;14.40;99.90;;;;;;5414334;26;20281;-83
2024/04/14 06:17:31;;;;;;;2.25;2.00;;;14.50;99.90;;;;;;5412970;26;20222;-82
2024/04/14 06:20:00;;;;;;;2.65;2.30;;;14.80;99.90;;;;;;5412277;26;20677;-82
2024/04/14 06:22:30;;;;;;;3.20;2.10;;;14.90;99.90;;;;;;5412689;26;20403;-82
2024/04/14 06:24:57;;;;;;;4.22;2.63;;;;;;;;;;5411343;26;20320;-81
2024/04/14 06:27:25;;;;;;;2.78;2.22;;;15.40;99.90;;;;;;5412212;26;20237;-84
2024/04/14 06:29:51;;;;;;;2.15;1.95;;;15.60;99.90;;;;;;5428556;26;20222;-84
2024/04/14 06:32:20;;;;;;;1.95;1.73;;;15.70;99.90;;;;;;5429606;26;20229;-84
2024/04/14 06:34:46;;;;;;;2.97;1.92;;;;;;;;;;5427746;26;20221;-81
2024/04/14 06:37:17;;;;;;;2.25;2.05;;;16.00;99.90;;;;;;5416058;26;20298;-82
2024/04/14 06:39:43;;;;;;;3.58;2.58;;;16.40;99.90;;;;;;5421393;26;20205;-84
2024/04/14 06:42:13;;;;;;;3.45;2.70;;;16.40;99.90;;;;;;5414430;26;20508;-85
2024/04/14 06:44:38;;;;;;;2.05;1.70;;;16.70;99.90;;;;;;5417273;26;20218;-84
2024/04/14 06:47:07;;;;;;;2.63;2.08;;;17.00;99.90;;;;;;5417724;26;20222;-83
2024/04/14 06:49:33;;;;;;;3.05;1.90;;;17.20;99.90;;;;;;5415778;26;20269;-84
2024/04/14 06:52:01;;;;;;;3.03;1.95;;;17.60;99.90;;;;;;5410403;26;20233;-85
2024/04/14 06:54:30;;;;;;;1.52;1.42;;;;;;;;;;5412118;26;20309;-84
2024/04/14 06:56:59;;;;;;;2.50;1.88;;;18.40;99.90;;;;;;5413030;26;20253;-83
2024/04/14 06:59:25;;;;;;;3.85;2.50;;;18.40;99.90;;;;;;5411627;26;20263;-83
2024/04/14 07:01:53;;;;;;;2.47;2.20;;;18.30;99.90;;;;;;5410766;26;20238;-84
2024/04/14 07:04:19;;;;;;;3.35;2.40;;;18.60;99.90;;;;;;5411689;26;20281;-83
2024/04/14 07:06:47;;;;;;;2.50;2.30;;;18.90;99.90;;;;;;5411996;26;20313;-84
2024/04/14 07:09:13;;;;;;;3.58;2.30;;;19.30;99.90;;;;;;5410579;26;20233;-83
2024/04/14 07:11:45;;;;;;;2.25;1.90;;;;;;;;;;5409198;26;20256;-83
2024/04/14 07:14:11;;;;;;;2.03;1.65;;;19.70;99.90;;;;;;5412836;26;20247;-83
2024/04/14 07:16:39;;;;;;;1.73;1.58;;;19.80;99.90;;;;;;5412603;26;20245;-84
2024/04/14 07:19:05;;;;;;;2.38;1.70;;;;;;;;;;5411622;26;20563;-81
2024/04/14 07:21:34;;;;;;;1.80;1.65;;;20.10;99.90;;;;;;5413291;26;20221;-83
2024/04/14 07:24:00;;;;;;;1.92;1.73;;;20.30;99.90;;;;;;5410661;26;20280;-82
2024/04/14 07:26:28;;;;;;;2.42;1.55;;;20.60;99.90;;;;;;5410659;26;20541;-82
2024/04/14 07:28:57;;;;;;;1.98;1.50;;;20.70;99.90;;;;;;5417067;26;20226;-84
2024/04/14 07:31:25;;;;;;;1.50;1.40;;;21.00;99.90;;;;;;5411002;26;20697;-82
2024/04/14 07:33:56;;;;;;;1.50;1.40;;;21.20;99.90;;;;;;5412481;26;20209;-83
2024/04/14 07:36:25;;;;;;;5.60;1.52;;;;;;;;;;5409463;26;20317;-82
2024/04/14 07:38:51;;;;;;;1.45;1.35;;;21.60;99.90;;;;;;5410964;26;20260;-82
2024/04/14 07:41:21;;;;;;;2.10;1.55;;;21.70;99.90;;;;;;5410894;26;20218;-83
2024/04/14 07:43:48;;;;;;;1.70;1.48;;;;;;;;;;5410908;26;20214;-82
2024/04/14 07:46:19;;;;;;;1.50;1.30;;;;;;;;;;5409468;26;20226;-83
2024/04/14 07:48:45;;;;;;;1.52;1.33;;;21.90;99.90;;;;;;5410053;26;20250;-82
2024/04/14 07:51:14;;;;;;;1.60;1.50;;;21.60;99.90;;;;;;5419232;26;20681;-83
2024/04/14 07:53:40;;;;;;;4.22;1.63;;;21.80;99.90;;;;;;5409928;26;20307;-84
2024/04/14 07:56:09;;;;;;;2.78;2.10;;;21.90;99.90;;;;;;5409898;26;20361;-83
2024/04/14 07:58:35;;;;;;;4.38;2.40;;;;;;;;;;5409943;26;20588;-83
2024/04/14 08:01:04;;;;;;;2.63;2.25;;;21.50;99.90;;;;;;5408971;26;20225;-83
2024/04/14 08:03:33;;;;;;;2.45;1.88;;;21.50;99.90;;;;;;5409910;26;20256;-83
2024/04/14 08:06:02;;;;;;;2.75;2.00;;;21.70;99.90;;;;;;5412652;26;20320;-82
2024/04/14 08:08:28;;;;;;;2.10;1.90;;;22.00;99.90;;;;;;5410076;26;20265;-82
2024/04/14 08:10:56;;;;;;;1.77;1.67;;;22.00;99.90;;;;;;5410639;26;20516;-83
2024/04/14 08:13:23;;;;;;;2.70;2.13;;;22.20;99.90;;;;;;5409182;26;20282;-82
2024/04/14 08:15:52;;;;;;;2.78;2.20;;;22.60;99.90;;;;;;5412890;26;20588;-83
2024/04/14 08:18:22;;;;;;;2.83;2.20;;;;;;;;;;5415499;26;20222;-82
2024/04/14 08:21:02;;;;;;;2.40;1.83;;;22.70;99.90;;;;;;5414142;26;20245;-83
2024/04/14 08:23:28;;;;;;;4.55;1.80;;;22.90;99.90;;;;;;5415771;26;20346;-81
2024/04/14 08:25:57;;;;;;;3.08;2.20;;;22.00;99.90;;;;;;5414324;26;20245;-82
2024/04/14 08:28:24;;;;;;;3.38;1.75;;;21.80;99.90;;;;;;5417627;26;20256;-82
2024/04/14 08:30:52;;;;;;;2.53;2.30;;;22.00;99.90;;;;;;5413942;26;20233;-83
2024/04/14 08:33:18;;;;;;;3.55;1.80;;;22.20;99.90;;;;;;5414729;26;20662;-85
2024/04/14 08:35:47;;;;;;;3.17;1.60;;;21.90;99.90;;;;;;5415244;26;20260;-83
2024/04/14 08:38:16;;;;;;;2.20;1.48;;;21.80;99.90;;;;;;5414946;26;20252;-82
2024/04/14 08:40:54;;;;;;;2.85;1.48;;;21.70;99.90;;;;;;5416614;26;20217;-82
2024/04/14 08:43:20;;;;;;;1.55;1.40;;;22.10;99.90;;;;;;5427646;26;20265;-83
2024/04/14 08:45:50;;;;;;;2.22;1.60;;;22.70;99.90;;;;;;5429571;26;20325;-84
2024/04/14 08:48:17;;;;;;;4.20;1.80;;;23.20;99.90;;;;;;5419569;26;20222;-83
2024/04/14 08:50:47;;;;;;;1.70;1.60;;;23.00;99.90;;;;;;5416604;26;20222;-83
2024/04/14 08:53:17;;;;;;;1.83;1.50;;;23.20;99.90;;;;;;5413776;26;20255;-82
2024/04/14 08:55:46;;;;;;;2.72;1.90;;;23.60;99.90;;;;;;5413867;26;20529;-82
2024/04/14 08:58:14;;;;;;;2.08;1.60;;;23.90;99.90;;;;;;5415533;26;20354;-82
2024/04/14 09:00:46;;;;;;;3.22;1.45;;;24.50;99.90;;;;;;5415469;26;20277;-83
2024/04/14 09:03:12;;;;;;;1.65;1.30;;;;;;;;;;5414990;26;20190;-81
2024/04/14 09:05:43;;;;;;;1.65;1.55;;;24.70;99.00;;;;;;5412966;26;20329;-82
2024/04/14 09:08:09;;;;;;;1.75;1.42;;;25.00;99.00;;;;;;5413431;26;20218;-83
2024/04/14 09:10:40;;;;;;;2.70;1.45;;;25.10;98.20;;;;;;5418256;26;20225;-83
2024/04/14 09:13:08;;;;;;;1.95;1.63;;;;;;;;;;5414645;26;20229;-81
2024/04/14 09:15:41;;;;;;;2.50;1.67;;;25.00;96.90;;;;;;5417343;26;20217;-82
2024/04/14 09:18:07;;;;;;;4.28;1.50;;;24.90;97.00;;;;;;5415279;26;20252;-82
2024/04/14 09:20:36;;;;;;;1.98;1.55;;;24.90;96.80;;;;;;5419168;26;20217;-83
2024/04/14 09:23:02;;;;;;;2.30;1.70;;;25.00;96.40;;;;;;5417460;26;20269;-82
2024/04/14 09:25:31;;;;;;;2.33;1.70;;;;;;;;;;5415806;26;20230;-84
2024/04/14 09:28:10;;;;;;;2.15;1.50;;;25.00;95.40;;;;;;5417090;26;20230;-84
2024/04/14 09:30:39;;;;;;;3.03;1.73;;;25.20;95.70;;;;;;5415714;26;20238;-83
2024/04/14 09:33:05;;;;;;;4.00;1.77;;;25.00;95.20;;;;;;5414509;26;20298;-84
2024/04/14 09:35:37;;;;;;;2.75;1.70;;;24.60;96.00;;;;;;5413535;26;20299;-84
2024/04/14 09:38:04;;;;;;;3.67;1.75;;;24.40;96.30;;;;;;5415477;26;20345;-84
2024/04/14 09:40:35;;;;;;;2.28;1.55;;;;;;;;;;5416095;26;20260;-85
2024/04/14 09:43:04;;;;;;;3.58;1.75;;;24.70;97.30;;;;;;5415508;26;20842;-84
2024/04/14 09:45:36;;;;;;;2.10;1.88;;;25.10;96.40;;;;;;5416068;26;20225;-82
2024/04/14 09:48:04;;;;;;;1.95;1.60;;;25.10;96.50;;;;;;5416401;26;20205;-84
2024/04/14 09:50:33;;;;;;;1.80;1.60;;;24.80;97.50;;;;;;5416186;26;20698;-82
2024/04/14 09:52:59;;;;;;;3.05;1.60;;;25.10;97.80;;;;;;5413821;26;20309;-82
2024/04/14 09:55:28;;;;;;;2.38;1.83;;;25.40;96.50;;;;;;5412867;26;20266;-81
2024/04/14 09:57:55;;;;;;;2.22;1.80;;;;;;;;;;5412853;26;20221;-82
2024/04/14 10:00:27;;;;;;;2.60;1.77;;;25.70;96.10;;;;;;5415008;26;20222;-84
2024/04/14 10:03:01;;;;;;;2.47;2.00;;;25.80;96.30;;;;;;5415781;26;20186;-82
2024/04/14 10:05:31;;;;;;;2.70;1.70;;;25.50;96.50;;;;;;5414455;26;20267;-82
2024/04/14 10:07:57;;;;;;;1.85;1.70;;;;;;;;;;5414271;26;20273;-82
2024/04/14 10:10:26;;;;;;;3.50;2.00;;;;;;;;;;5415103;26;20218;-82
2024/04/14 10:12:52;;;;;;;4.38;2.20;;;25.60;96.30;;;;;;5415836;26;20273;-83
2024/04/14 10:15:22;;;;;;;2.78;2.17;;;;;;;;;;5413147;26;20225;-84
2024/04/14 10:17:48;;;;;;;2.85;1.80;;;25.50;96.60;;;;;;5414314;26;20330;-83
2024/04/14 10:20:21;;;;;;;2.55;2.00;;;;;;;;;;5416326;26;20264;-82
2024/04/14 10:22:47;;;;;;;3.17;2.10;;;;;;;;;;5417108;26;20226;-84
2024/04/14 10:25:25;;;;;;;3.38;1.98;;;25.40;96.10;;;;;;5419935;26;20221;-83
2024/04/14 10:27:52;;;;;;;2.38;1.80;;;;;;;;;;5428957;26;20229;-85
2024/04/14 10:30:23;;;;;;;2.47;1.90;;;25.80;96.70;;;;;;5428256;26;20218;-84
2024/04/14 10:33:01;;;;;;;2.88;1.88;;;26.40;95.40;;;;;;5429604;26;20359;-84
2024/04/14 10:35:32;;;;;;;1.95;1.67;;;26.50;95.80;;;;;;5421069;26;20310;-80
2024/04/14 10:37:58;;;;;;;1.83;1.70;;;26.60;95.50;;;;;;5422924;26;20229;-82
2024/04/14 10:40:27;;;;;;;2.65;1.92;;;25.90;96.80;;;;;;5417735;26;20264;-83
2024/04/14 10:42:53;;;;;;;2.92;1.98;;;25.50;97.60;;;;;;5416324;26;20701;-85
2024/04/14 10:45:31;;;;;;;2.63;1.77;;;25.20;97.90;;;;;;5414979;26;20260;-83
2024/04/14 10:47:58;;;;;;;3.33;1.95;;;;;;;;;;5418984;26;20196;-82
2024/04/14 10:50:27;;;;;;;3.03;2.00;;;;;;;;;;5414486;26;20302;-84
2024/04/14 10:52:56;;;;;;;2.28;1.73;;;25.40;98.60;;;;;;5413505;26;20229;-82
2024/04/14 10:55:25;;;;;;;3.15;2.05;;;;;;;;;;5423561;26;20225;-82
2024/04/14 10:57:52;;;;;;;2.35;1.85;;;;;;;;;;5427788;26;20234;-82
2024/04/14 11:00:21;;;;;;;2.35;2.03;;;;;;;;;;5417817;26;20291;-82
2024/04/14 11:02:47;;;;;;;2.85;2.00;;;25.90;96.50;;;;;;5415793;26;20665;-83
2024/04/14 11:05:17;;;;;;;4.70;2.00;;;26.00;97.10;;;;;;5413072;26;20637;-82
2024/04/14 11:07:49;;;;;;;2.40;1.90;;;25.90;97.40;;;;;;5412092;26;20270;-82
2024/04/14 11:10:22;;;;;;;2.03;1.75;;;26.00;97.40;;;;;;5412100;26;20229;-82
2024/04/14 11:12:53;;;;;;;5.60;2.15;;;;;;;;;;5408945;26;20298;-82
2024/04/14 11:15:23;;;;;;;3.55;1.90;;;26.00;97.30;;;;;;5408920;26;20278;-84
2024/04/14 11:17:49;;;;;;;2.38;1.80;;;26.00;97.60;;;;;;5411080;26;20603;-82
2024/04/14 11:20:18;;;;;;;3.30;2.25;;;25.80;97.60;;;;;;5412847;26;20299;-85
2024/04/14 11:22:45;;;;;;;3.70;2.28;;;;;;;;;;5406474;26;20606;-83
2024/04/14 11:25:14;;;;;;;5.93;2.42;;;25.90;97.80;;;;;;5409762;26;20289;-82
2024/04/14 11:27:44;;;;;;;2.50;1.90;;;26.10;96.80;;;;;;5411313;26;20721;-81
2024/04/14 11:30:13;;;;;;;2.63;1.83;;;;;;;;;;5412931;26;20260;-83
2024/04/14 11:32:40;;;;;;;3.67;1.90;;;;;;;;;;5413117;26;20260;-83
2024/04/14 11:35:12;;;;;;;2.13;1.90;;;26.40;96.60;;;;;;5414629;26;20268;-82
2024/04/14 11:37:43;;;;;;;2.22;1.80;;;;;;;;;;5412859;26;20300;-83
2024/04/14 11:40:15;;;;;;;2.63;1.80;;;26.00;96.80;;;;;;5412171;26;20252;-83
2024/04/14 11:42:43;;;;;;;3.50;1.80;;;26.00;97.10;;;;;;5412187;26;20357;-81
2024/04/14 11:45:13;;;;;;;3.47;1.60;;;26.50;96.90;;;;;;5412524;26;20222;-83
2024/04/14 11:47:39;;;;;;;2.15;1.92;;;;;;;;;;5412614;26;20242;-83
2024/04/14 11:50:09;;;;;;;2.22;1.80;;;26.70;96.40;;;;;;5415462;26;20245;-85
2024/04/14 11:52:36;;;;;;;3.35;1.90;;;;;;;;;;5414685;26;20222;-82
2024/04/14 11:55:06;;;;;;;2.10;1.90;;;27.10;95.20;;;;;;5414893;26;20293;-82
2024/04/14 11:57:38;;;;;;;2.33;1.75;;;26.40;96.30;;;;;;5415359;26;20225;-83
2024/04/14 12:00:08;;;;;;;3.50;2.10;;;26.20;95.50;;;;;;5416259;26;20324;-82
2024/04/14 12:02:43;;;;;;;2.28;1.63;;;;;;;;;;5413468;26;20229;-85
2024/04/14 12:05:10;;;;;;;3.25;1.90;;;;;;;;;;5415903;26;20230;-82
2024/04/14 12:07:39;;;;;;;3.08;1.90;;;26.50;96.00;;;;;;5415467;26;20261;-83
2024/04/14 12:10:06;;;;;;;2.65;1.90;;;27.10;95.50;;;;;;5414700;26;20571;-84
2024/04/14 12:12:35;;;;;;;2.22;1.88;;;;;;;;;;5416917;26;20317;-84
2024/04/14 12:15:03;;;;;;;2.78;2.15;;;;;;;;;;5416312;26;20332;-82
2024/04/14 12:17:34;;;;;;;3.03;1.80;;;27.20;93.50;;;;;;5414834;26;20279;-84
2024/04/14 12:20:00;;;;;;;2.42;1.73;;;27.60;93.10;;;;;;5417117;26;20279;-83
2024/04/14 12:22:29;;;;;;;2.60;1.73;;;27.50;92.70;;;;;;5415638;26;20269;-83
2024/04/14 12:24:55;;;;;;;2.03;1.60;;;27.70;92.80;;;;;;5416527;26;20243;-82
2024/04/14 12:27:23;;;;;;;3.15;1.80;;;27.30;92.40;;;;;;5418873;26;20250;-81
2024/04/14 12:29:49;;;;;;;2.85;1.80;;;27.40;92.80;;;;;;5420769;26;20721;-83
2024/04/14 12:32:19;;;;;;;1.75;1.65;;;27.20;93.30;;;;;;5421928;26;20334;-83
2024/04/14 12:34:48;;;;;;;1.90;1.70;;;27.00;92.80;;;;;;5417766;26;20266;-82
2024/04/14 12:37:17;;;;;;;2.63;1.80;;;;;;;;;;5417328;26;20404;-83
2024/04/14 12:39:43;;;;;;;3.58;1.70;;;27.40;95.80;;;;;;5418053;26;20311;-82
2024/04/14 12:42:12;;;;;;;3.40;1.80;;;27.50;92.30;;;;;;5418775;26;20230;-81
2024/04/14 12:44:39;;;;;;;4.10;1.95;;;;;;;;;;5415301;26;20324;-82
2024/04/14 12:47:08;;;;;;;2.63;1.88;;;;;;;;;;5415270;26;20230;-82
2024/04/14 12:49:34;;;;;;;2.88;1.90;;;;;;;;;;5414392;26;20273;-84
2024/04/14 12:52:07;;;;;;;2.85;1.90;;;26.50;93.40;;;;;;5414246;26;20225;-84
2024/04/14 12:54:33;;;;;;;3.20;1.70;;;26.20;93.10;;;;;;5415217;26;20178;-83
2024/04/14 12:57:02;;;;;;;4.30;1.80;;;;;;;;;;5413732;26;20301;-86
2024/04/14 12:59:28;;;;;;;2.88;1.90;;;;;;;;;;5412952;26;20655;-83
2024/04/14 13:01:57;;;;;;;2.65;1.70;;;;;;;;;;5412319;26;20225;-82
2024/04/14 13:04:23;;;;;;;3.20;1.58;;;;;;;;;;5414610;26;20662;-83
2024/04/14 13:06:52;;;;;;;2.53;1.73;;;;;;;;;;5413799;26;20234;-82
2024/04/14 13:09:21;;;;;;;2.05;1.77;;;;;;;;;;5416836;26;20325;-83
2024/04/14 13:11:50;;;;;;;1.83;1.70;;;;;;;;;;5416446;26;20276;-82
2024/04/14 13:14:16;;;;;;;3.15;1.90;;;;;;;;;;5416543;26;20261;-84
2024/04/14 13:16:45;;;;;;;2.85;1.70;;;;;;;;;;5415579;26;20272;-83
2024/04/14 13:19:11;;;;;;;1.67;1.58;;;;;;;;;;5415373;26;20355;-86
2024/04/14 13:21:42;;;;;;;3.17;1.50;;;;;;;;;;5413590;26;20229;-84
2024/04/14 13:24:09;;;;;;;2.80;1.50;;;;;;;;;;5413223;26;20213;-84
2024/04/14 13:26:40;;;;;;;3.08;1.50;;;29.50;84.60;;;;;;5414440;26;20270;-84
2024/04/14 13:29:06;;;;;;;1.63;1.48;;;;;;;;;;5416935;26;20178;-82
2024/04/14 13:31:35;;;;;;;3.95;1.73;;;;;;;;;;5413479;26;20281;-83
2024/04/14 13:34:01;;;;;;;3.35;1.60;;;27.50;87.20;;;;;;5411644;26;20708;-79
2024/04/14 13:36:30;;;;;;;2.45;1.65;;;27.10;88.70;;;;;;5414857;26;20247;-82